< < Back
Terminal Aerodrome Forecast


Current Version              Previous Versions:   1  2  3  4  5  6  7  8  9  

Terminal Aerodrome Forecast

253
FTUS42 KCHS 241900 AAA
TAFSAV
TAF AMD
KSAV 241900Z 2419/2518 08011G18KT P6SM SCT040
     FM250000 05004KT P6SM SKC=

Latest METAR

194
SAUS80 KWBC 241900 RRA
MTRSAV
METAR KSAV 241853Z 10011G20KT 10SM SCT050 BKN070 BKN200 31/19 A3019 RMK
AO2 SLP223 T03110194


USA.gov is the U.S. government's official web portal to all federal, state and local government web resources and services.